createdAt,value
2017-09-26T00:05:10.523Z,99.90
2017-09-26T00:07:36.450Z,99.90
2017-09-26T00:10:15.777Z,99.90
2017-09-26T00:12:49.372Z,99.90
2017-09-26T00:15:30.012Z,99.90
2017-09-26T00:18:04.462Z,99.90
2017-09-26T00:20:34.152Z,99.90
2017-09-26T00:23:11.566Z,99.90
2017-09-26T00:25:43.214Z,99.90
2017-09-26T00:28:17.743Z,99.90
2017-09-26T00:30:50.354Z,99.90
2017-09-26T00:33:22.923Z,99.90
2017-09-26T00:36:02.395Z,99.90
2017-09-26T00:38:35.767Z,99.90
2017-09-26T00:41:02.785Z,99.90
2017-09-26T00:43:44.191Z,99.90
2017-09-26T00:46:10.134Z,99.90
2017-09-26T00:48:38.162Z,99.90
2017-09-26T00:51:04.873Z,99.90
2017-09-26T00:53:30.958Z,99.90
2017-09-26T00:55:56.937Z,99.90
2017-09-26T00:58:33.766Z,99.90
2017-09-26T01:01:11.341Z,99.90
2017-09-26T01:03:46.889Z,99.90
2017-09-26T01:06:19.677Z,99.90
2017-09-26T01:08:52.366Z,99.90
2017-09-26T01:11:33.039Z,99.90
2017-09-26T01:14:11.740Z,99.90
2017-09-26T01:16:48.399Z,99.90
2017-09-26T01:19:19.957Z,99.90
2017-09-26T01:22:05.392Z,99.90
2017-09-26T01:24:39.126Z,99.90
2017-09-26T01:27:10.837Z,99.90
2017-09-26T01:29:37.837Z,99.90
2017-09-26T01:32:07.855Z,99.90
2017-09-26T01:34:40.129Z,99.90
2017-09-26T01:37:17.825Z,99.90
2017-09-26T01:39:55.324Z,99.90
2017-09-26T01:42:26.036Z,99.90
2017-09-26T01:47:58.593Z,99.90
2017-09-26T01:50:31.953Z,99.90
2017-09-26T01:53:04.854Z,99.90
2017-09-26T01:55:55.460Z,99.90
2017-09-26T01:58:34.890Z,99.90
2017-09-26T02:01:11.146Z,99.90
2017-09-26T02:03:45.506Z,99.90
2017-09-26T02:09:04.738Z,99.90
2017-09-26T02:14:23.968Z,99.90
2017-09-26T02:16:57.591Z,99.90
2017-09-26T02:19:25.585Z,99.90
2017-09-26T02:21:58.453Z,99.90
2017-09-26T02:24:31.858Z,99.90
2017-09-26T02:27:13.258Z,99.90
2017-09-26T02:29:56.905Z,99.90
2017-09-26T02:32:27.582Z,99.90
2017-09-26T02:35:00.150Z,99.90
2017-09-26T02:37:33.687Z,99.90
2017-09-26T02:40:00.742Z,99.90
2017-09-26T02:42:39.144Z,99.90
2017-09-26T02:45:11.390Z,99.90
2017-09-26T02:47:43.703Z,99.90
2017-09-26T02:50:18.033Z,99.90
2017-09-26T02:52:51.503Z,99.90
2017-09-26T02:55:19.476Z,99.90
2017-09-26T02:57:56.654Z,99.90
2017-09-26T03:00:30.070Z,99.90
2017-09-26T03:02:59.483Z,99.90
2017-09-26T03:05:35.734Z,99.90
2017-09-26T03:08:07.258Z,99.90
2017-09-26T03:10:36.966Z,99.90
2017-09-26T03:13:06.381Z,99.90
2017-09-26T03:15:47.912Z,99.90
2017-09-26T03:18:20.553Z,99.90
2017-09-26T03:20:54.289Z,99.90
2017-09-26T03:23:26.748Z,99.90
2017-09-26T03:25:52.698Z,99.90
2017-09-26T03:28:20.722Z,99.90
2017-09-26T03:30:46.762Z,99.90
2017-09-26T03:33:17.499Z,99.90
2017-09-26T03:35:54.597Z,99.90
2017-09-26T03:38:27.805Z,99.90
2017-09-26T03:41:01.289Z,99.90
2017-09-26T03:43:36.324Z,99.90
2017-09-26T03:46:02.265Z,99.90
2017-09-26T03:48:34.931Z,99.90
2017-09-26T03:51:06.574Z,99.90
2017-09-26T03:53:51.077Z,99.90
2017-09-26T03:56:18.087Z,99.90
2017-09-26T03:58:44.838Z,99.90
2017-09-26T04:01:11.605Z,99.90
2017-09-26T04:03:52.382Z,99.90
2017-09-26T04:06:36.107Z,99.90
2017-09-26T04:09:08.561Z,99.90
2017-09-26T04:11:48.224Z,99.90
2017-09-26T04:14:24.785Z,99.90
2017-09-26T04:16:57.231Z,99.90
2017-09-26T04:19:27.777Z,99.90
2017-09-26T04:22:00.262Z,99.90
2017-09-26T04:24:39.814Z,99.90
2017-09-26T04:27:05.754Z,99.90
2017-09-26T04:29:46.313Z,99.90
2017-09-26T04:32:18.912Z,99.90
2017-09-26T04:34:53.278Z,99.90
2017-09-26T04:37:27.386Z,99.90
2017-09-26T04:40:01.627Z,99.90
2017-09-26T04:42:35.220Z,99.90
2017-09-26T04:45:09.846Z,99.90
2017-09-26T04:47:43.961Z,99.90
2017-09-26T04:50:11.015Z,99.90
2017-09-26T04:52:39.075Z,99.90
2017-09-26T04:55:05.796Z,99.90
2017-09-26T04:57:42.294Z,99.90
2017-09-26T05:00:20.918Z,99.90
2017-09-26T05:02:54.313Z,99.90
2017-09-26T05:05:20.353Z,99.90
2017-09-26T05:07:47.365Z,99.90
2017-09-26T05:10:26.954Z,99.90
2017-09-26T05:13:06.610Z,99.90
2017-09-26T05:15:46.233Z,99.90
2017-09-26T05:18:17.009Z,99.90
2017-09-26T05:20:43.976Z,99.90
2017-09-26T05:23:30.208Z,99.90
2017-09-26T05:25:57.242Z,99.90
2017-09-26T05:28:26.623Z,99.90
2017-09-26T05:31:06.106Z,99.90
2017-09-26T05:33:32.102Z,99.90
2017-09-26T05:35:59.149Z,99.90
2017-09-26T05:38:33.692Z,99.90
2017-09-26T05:41:03.479Z,99.90
2017-09-26T05:43:40.902Z,99.90
2017-09-26T05:46:32.685Z,99.90
2017-09-26T05:49:10.299Z,99.90
2017-09-26T05:51:36.238Z,99.90
2017-09-26T05:54:02.168Z,99.90
2017-09-26T05:59:21.630Z,99.90
2017-09-26T06:01:51.881Z,99.90
2017-09-26T06:04:24.844Z,99.90
2017-09-26T06:07:10.354Z,99.90
2017-09-26T06:09:36.352Z,99.90
2017-09-26T06:12:05.178Z,99.90
2017-09-26T06:14:31.189Z,99.90
2017-09-26T06:17:00.450Z,99.90
2017-09-26T06:19:27.698Z,99.90
2017-09-26T06:21:53.857Z,99.90
2017-09-26T06:24:20.562Z,99.90
2017-09-26T06:26:55.529Z,99.90
2017-09-26T06:29:22.217Z,99.90
2017-09-26T06:31:50.245Z,99.90
2017-09-26T06:34:18.079Z,99.90
2017-09-26T06:36:46.081Z,99.90
2017-09-26T06:39:12.121Z,99.90
2017-09-26T06:41:41.502Z,99.90
2017-09-26T06:44:17.699Z,99.90
2017-09-26T06:46:44.382Z,99.90
2017-09-26T06:49:34.679Z,99.90
2017-09-26T06:52:14.410Z,99.90
2017-09-26T06:54:41.408Z,99.90
2017-09-26T06:57:13.508Z,99.90
2017-09-26T06:59:53.529Z,99.90
2017-09-26T07:02:35.142Z,99.90
2017-09-26T07:07:58.637Z,99.90
2017-09-26T07:10:31.081Z,99.90
2017-09-26T07:13:01.603Z,99.90
2017-09-26T07:15:34.500Z,99.90
2017-09-26T07:18:15.195Z,99.90
2017-09-26T07:20:48.429Z,99.90
2017-09-26T07:23:21.741Z,99.90
2017-09-26T07:25:50.430Z,99.90
2017-09-26T07:28:18.220Z,99.90
2017-09-26T07:30:48.314Z,99.90
2017-09-26T07:33:21.838Z,99.90
2017-09-26T07:35:55.546Z,99.90
2017-09-26T07:38:29.371Z,99.90
2017-09-26T07:41:01.733Z,99.90
2017-09-26T07:43:31.317Z,99.90
2017-09-26T07:46:18.606Z,99.90
2017-09-26T07:48:44.545Z,99.90
2017-09-26T07:51:10.467Z,99.90
2017-09-26T07:53:36.598Z,99.90
2017-09-26T07:56:02.555Z,99.90
2017-09-26T07:58:29.261Z,99.90
2017-09-26T08:00:55.867Z,99.90
2017-09-26T08:03:22.460Z,99.90
2017-09-26T08:05:49.114Z,99.90
2017-09-26T08:08:28.032Z,99.90
2017-09-26T08:10:53.955Z,99.90
2017-09-26T08:13:19.910Z,99.90
2017-09-26T08:15:46.586Z,99.90
2017-09-26T08:18:12.515Z,99.90
2017-09-26T08:20:38.454Z,99.90
2017-09-26T08:23:04.394Z,99.90
2017-09-26T08:25:30.330Z,99.90
2017-09-26T08:27:56.252Z,99.90
2017-09-26T08:30:22.187Z,99.90
2017-09-26T08:32:48.122Z,99.90
2017-09-26T08:35:14.045Z,99.90
2017-09-26T08:37:39.969Z,99.90
2017-09-26T08:40:05.906Z,99.90
2017-09-26T08:42:31.831Z,99.90
2017-09-26T08:44:57.776Z,99.90
2017-09-26T08:47:24.455Z,99.90
2017-09-26T08:49:54.031Z,99.90
2017-09-26T08:52:20.703Z,99.90
2017-09-26T08:54:46.650Z,99.90
2017-09-26T08:57:12.590Z,99.90
2017-09-26T08:59:38.533Z,99.90
2017-09-26T09:02:04.462Z,99.90
2017-09-26T09:04:30.413Z,99.90
2017-09-26T09:06:59.177Z,99.90
2017-09-26T09:09:25.124Z,99.90
2017-09-26T09:11:55.283Z,99.90
2017-09-26T09:14:21.217Z,99.90
2017-09-26T09:16:48.933Z,99.90
2017-09-26T09:19:16.622Z,99.90
2017-09-26T09:21:43.277Z,99.90
2017-09-26T09:24:09.226Z,99.90
2017-09-26T09:26:35.150Z,99.90
2017-09-26T09:29:01.098Z,99.90
2017-09-26T09:31:27.043Z,99.90
2017-09-26T09:33:52.976Z,99.90
2017-09-26T09:36:18.909Z,99.90
2017-09-26T09:38:44.845Z,99.90
2017-09-26T09:41:13.646Z,99.90
2017-09-26T09:43:41.309Z,99.90
2017-09-26T09:46:07.998Z,99.90
2017-09-26T09:48:33.933Z,99.90
2017-09-26T09:50:59.888Z,99.00
2017-09-26T09:53:29.390Z,99.60
2017-09-26T09:55:55.314Z,97.70
2017-09-26T09:58:21.234Z,97.80
2017-09-26T10:00:50.573Z,96.00
2017-09-26T10:03:19.394Z,95.60
2017-09-26T10:05:45.334Z,95.60
2017-09-26T10:08:11.270Z,94.50
2017-09-26T10:10:37.198Z,93.10
2017-09-26T10:13:03.122Z,92.40
2017-09-26T10:15:29.058Z,92.40
2017-09-26T10:17:55.018Z,91.20
2017-09-26T10:20:20.936Z,90.70
2017-09-26T10:22:46.876Z,89.70
2017-09-26T10:25:13.557Z,90.30
2017-09-26T10:27:39.541Z,90.30
2017-09-26T10:30:05.467Z,88.20
2017-09-26T10:32:31.424Z,90.30
2017-09-26T10:35:01.267Z,90.20
2017-09-26T10:37:27.198Z,90.20
2017-09-26T10:39:53.130Z,90.70
2017-09-26T10:42:19.081Z,90.40
2017-09-26T10:44:45.038Z,88.60
2017-09-26T10:47:11.730Z,89.30
2017-09-26T10:49:37.869Z,89.10
2017-09-26T10:52:03.801Z,86.80
2017-09-26T10:54:29.757Z,86.30
2017-09-26T10:56:55.673Z,88.00
2017-09-26T10:59:21.632Z,87.30
2017-09-26T11:01:47.570Z,86.30
2017-09-26T11:04:13.550Z,88.60
2017-09-26T11:06:39.486Z,88.30
2017-09-26T11:09:05.530Z,89.80
2017-09-26T11:11:32.206Z,87.30
2017-09-26T11:13:58.137Z,87.20
2017-09-26T11:16:24.082Z,86.70
2017-09-26T11:18:50.026Z,87.60
2017-09-26T11:21:15.970Z,85.30
2017-09-26T11:23:41.934Z,86.50
2017-09-26T11:26:08.602Z,85.00
2017-09-26T11:28:34.531Z,85.00
2017-09-26T11:31:00.517Z,84.30
2017-09-26T11:33:30.730Z,84.40
2017-09-26T11:35:56.724Z,84.30
2017-09-26T11:38:22.679Z,86.60
2017-09-26T11:40:51.930Z,87.30
2017-09-26T11:43:17.858Z,84.60
2017-09-26T11:45:43.805Z,84.60
2017-09-26T11:48:13.068Z,86.10
2017-09-26T11:50:43.476Z,87.70
2017-09-26T11:53:09.418Z,87.70
2017-09-26T11:55:39.350Z,86.60
2017-09-26T11:58:06.082Z,85.40
2017-09-26T12:00:32.817Z,85.60
2017-09-26T12:02:58.751Z,85.60
2017-09-26T12:05:27.546Z,83.40
2017-09-26T12:07:55.217Z,85.80
2017-09-26T12:10:21.901Z,83.90
2017-09-26T12:13:02.819Z,84.00
2017-09-26T12:15:29.517Z,86.20
2017-09-26T12:17:55.445Z,85.50
2017-09-26T12:20:21.380Z,84.40
2017-09-26T12:22:47.310Z,86.30
2017-09-26T12:25:13.244Z,86.20
2017-09-26T12:27:39.246Z,84.60
2017-09-26T12:30:05.182Z,85.20
2017-09-26T12:32:31.114Z,84.90
2017-09-26T12:34:57.059Z,85.00
2017-09-26T12:37:22.999Z,85.00
2017-09-26T12:39:48.936Z,85.10
2017-09-26T12:42:14.862Z,85.20
2017-09-26T12:44:40.941Z,87.20
2017-09-26T12:47:06.894Z,85.90
2017-09-26T12:49:32.837Z,85.20
2017-09-26T12:51:58.774Z,84.10
2017-09-26T12:54:24.719Z,83.70
2017-09-26T12:56:51.405Z,83.40
2017-09-26T12:59:17.363Z,83.30
2017-09-26T13:01:43.336Z,83.90
2017-09-26T13:04:09.246Z,81.80
2017-09-26T13:06:35.936Z,77.00
2017-09-26T13:09:01.936Z,76.90
2017-09-26T13:11:27.872Z,78.40
2017-09-26T13:13:53.814Z,75.70
2017-09-26T13:16:19.742Z,76.40
2017-09-26T13:18:45.694Z,77.80
2017-09-26T13:21:11.711Z,78.70
2017-09-26T13:23:37.659Z,78.20
2017-09-26T13:26:07.476Z,82.70
2017-09-26T13:28:34.205Z,79.70
2017-09-26T13:31:03.708Z,79.70
2017-09-26T13:33:40.634Z,75.20
2017-09-26T13:36:08.310Z,74.20
2017-09-26T13:38:37.074Z,75.70
2017-09-26T13:41:03.046Z,75.60
2017-09-26T13:43:28.973Z,73.00
2017-09-26T13:45:54.915Z,70.60
2017-09-26T13:48:20.878Z,68.80
2017-09-26T13:50:46.819Z,70.10
2017-09-26T13:53:13.489Z,69.50
2017-09-26T13:55:39.503Z,69.40
2017-09-26T13:58:06.185Z,71.50
2017-09-26T14:00:32.154Z,71.50
2017-09-26T14:02:58.097Z,72.80
2017-09-26T14:05:26.773Z,71.70
2017-09-26T14:07:56.415Z,71.60
2017-09-26T14:10:23.222Z,73.40
2017-09-26T14:12:49.190Z,73.20
2017-09-26T14:15:15.862Z,71.40
2017-09-26T14:17:41.806Z,71.30
2017-09-26T14:20:07.803Z,70.70
2017-09-26T14:22:34.729Z,73.00
2017-09-26T14:25:02.441Z,70.90
2017-09-26T14:27:28.449Z,71.30
2017-09-26T14:29:55.105Z,68.20
2017-09-26T14:32:21.070Z,68.20
2017-09-26T14:34:47.021Z,66.50
2017-09-26T14:37:17.493Z,66.30
2017-09-26T14:39:43.434Z,65.40
2017-09-26T14:42:09.386Z,67.10
2017-09-26T14:44:36.322Z,65.60
2017-09-26T14:47:02.283Z,65.20
2017-09-26T14:49:28.966Z,66.90
2017-09-26T14:51:54.902Z,66.70
2017-09-26T14:54:21.004Z,66.10
2017-09-26T14:56:47.000Z,65.70
2017-09-26T14:59:12.941Z,65.80
2017-09-26T15:01:38.877Z,65.40
2017-09-26T15:04:06.542Z,67.30
2017-09-26T15:06:33.370Z,67.50
2017-09-26T15:09:01.381Z,67.50
2017-09-26T15:11:27.334Z,68.50
2017-09-26T15:13:53.333Z,67.30
2017-09-26T15:16:22.030Z,69.40
2017-09-26T15:18:47.958Z,69.30
2017-09-26T15:21:13.908Z,71.60
2017-09-26T15:23:39.861Z,72.50
2017-09-26T15:26:05.822Z,71.80
2017-09-26T15:28:32.514Z,72.40
2017-09-26T15:30:58.441Z,72.40
2017-09-26T15:33:24.369Z,71.60
2017-09-26T15:35:50.317Z,70.70
2017-09-26T15:38:16.268Z,69.80
2017-09-26T15:40:42.967Z,68.50
2017-09-26T15:43:08.893Z,68.20
2017-09-26T15:45:34.822Z,68.20
2017-09-26T15:48:00.766Z,68.20
2017-09-26T15:50:26.725Z,69.00
2017-09-26T15:52:57.172Z,68.00
2017-09-26T15:55:23.851Z,67.50
2017-09-26T15:57:49.786Z,67.50
2017-09-26T16:00:15.714Z,67.60
2017-09-26T16:02:41.644Z,69.10
2017-09-26T16:05:07.574Z,67.60
2017-09-26T16:07:33.517Z,67.50
2017-09-26T16:10:00.455Z,69.90
2017-09-26T16:12:26.402Z,70.50
2017-09-26T16:14:52.329Z,70.40
2017-09-26T16:17:22.488Z,70.70
2017-09-26T16:19:48.425Z,70.70
2017-09-26T16:22:14.369Z,71.50
2017-09-26T16:24:40.291Z,73.70
2017-09-26T16:27:06.266Z,74.10
2017-09-26T16:29:32.197Z,74.90
2017-09-26T16:31:58.135Z,76.20
2017-09-26T16:34:28.359Z,77.40
2017-09-26T16:36:57.046Z,78.20
2017-09-26T16:39:27.282Z,79.10
2017-09-26T16:41:56.072Z,79.50
2017-09-26T16:44:29.607Z,80.30
2017-09-26T16:46:55.561Z,80.10
2017-09-26T16:49:21.493Z,81.10
2017-09-26T16:51:47.437Z,80.80
2017-09-26T16:54:15.218Z,81.70
2017-09-26T16:56:41.909Z,82.90
2017-09-26T16:59:07.855Z,82.90
2017-09-26T17:01:33.796Z,83.00
2017-09-26T17:03:59.757Z,83.00
2017-09-26T17:06:29.781Z,84.20
2017-09-26T17:08:59.585Z,84.60
2017-09-26T17:11:26.271Z,84.30
2017-09-26T17:13:52.203Z,84.30
2017-09-26T17:16:18.137Z,85.20
2017-09-26T17:18:44.077Z,85.10
2017-09-26T17:21:13.918Z,85.80
2017-09-26T17:23:48.464Z,86.00
2017-09-26T17:26:26.982Z,86.70
2017-09-26T17:28:52.934Z,87.10
2017-09-26T17:31:18.851Z,88.50
2017-09-26T17:33:44.824Z,89.30
2017-09-26T17:36:10.770Z,89.60
2017-09-26T17:38:37.470Z,90.30
2017-09-26T17:41:03.451Z,90.20
2017-09-26T17:43:30.179Z,91.00
2017-09-26T17:45:56.122Z,91.40
2017-09-26T17:48:22.806Z,91.20
2017-09-26T17:50:48.746Z,91.20
2017-09-26T17:53:14.685Z,91.30
2017-09-26T17:55:40.649Z,91.50
2017-09-26T17:58:07.352Z,91.70
2017-09-26T18:00:33.298Z,91.70
2017-09-26T18:03:00.252Z,92.20
2017-09-26T18:05:26.186Z,92.70
2017-09-26T18:07:52.117Z,92.90
2017-09-26T18:10:18.050Z,93.00
2017-09-26T18:12:44.737Z,93.30
2017-09-26T18:15:10.662Z,93.60
2017-09-26T18:17:36.619Z,93.60
2017-09-26T18:20:02.581Z,94.00
2017-09-26T18:22:29.260Z,94.40
2017-09-26T18:24:55.192Z,94.40
2017-09-26T18:27:21.134Z,94.80
2017-09-26T18:29:47.837Z,95.00
2017-09-26T18:32:15.505Z,95.70
2017-09-26T18:34:41.493Z,95.70
2017-09-26T18:37:07.429Z,96.00
2017-09-26T18:39:36.810Z,96.30
2017-09-26T18:42:02.741Z,96.60
2017-09-26T18:44:28.744Z,96.50
2017-09-26T18:46:54.678Z,96.50
2017-09-26T18:49:20.625Z,97.00
2017-09-26T18:51:46.560Z,97.50
2017-09-26T18:54:12.485Z,97.70
2017-09-26T18:56:38.442Z,97.80
2017-09-26T18:59:05.126Z,98.00
2017-09-26T19:01:31.066Z,98.20
2017-09-26T19:03:57.009Z,98.40
2017-09-26T19:06:22.943Z,98.70
2017-09-26T19:08:48.902Z,98.70
2017-09-26T19:11:15.594Z,98.70
2017-09-26T19:13:43.077Z,98.70
2017-09-26T19:16:14.969Z,98.70
2017-09-26T19:18:48.271Z,98.90
2017-09-26T19:21:21.996Z,99.30
2017-09-26T19:23:48.002Z,99.30
2017-09-26T19:26:25.126Z,99.90
2017-09-26T19:28:52.133Z,99.90
2017-09-26T19:31:21.946Z,99.90
2017-09-26T19:33:49.731Z,99.90
2017-09-26T19:36:17.506Z,99.90
2017-09-26T19:38:43.509Z,99.90
2017-09-26T19:41:10.280Z,99.90
2017-09-26T19:43:40.675Z,99.90
2017-09-26T19:46:10.298Z,99.90
2017-09-26T19:48:38.055Z,99.90
2017-09-26T19:51:08.693Z,99.90
2017-09-26T19:53:45.077Z,99.90
2017-09-26T19:56:17.649Z,99.90
2017-09-26T19:58:44.396Z,99.90
2017-09-26T20:01:12.166Z,99.90
2017-09-26T20:03:38.838Z,99.90
2017-09-26T20:06:04.818Z,99.90
2017-09-26T20:08:30.933Z,99.90
2017-09-26T20:10:58.944Z,99.90
2017-09-26T20:13:27.611Z,99.90
2017-09-26T20:15:54.578Z,99.90
2017-09-26T20:18:26.861Z,99.90
2017-09-26T20:20:55.546Z,99.90
2017-09-26T20:23:22.240Z,99.90
2017-09-26T20:25:48.193Z,99.90
2017-09-26T20:28:15.161Z,99.90
2017-09-26T20:30:42.006Z,99.90
2017-09-26T20:33:08.030Z,99.90
2017-09-26T20:35:34.235Z,99.90
2017-09-26T20:38:05.813Z,99.90
2017-09-26T20:40:39.351Z,99.90
2017-09-26T20:43:05.353Z,99.90
2017-09-26T20:45:31.396Z,99.90
2017-09-26T20:48:00.078Z,99.90
2017-09-26T20:50:28.766Z,99.90
2017-09-26T20:52:59.114Z,99.90
2017-09-26T20:55:29.333Z,99.90
2017-09-26T20:57:56.064Z,99.90
2017-09-26T21:00:23.551Z,99.90
2017-09-26T21:02:49.501Z,99.90
2017-09-26T21:05:15.652Z,99.90
2017-09-26T21:07:43.748Z,99.90
2017-09-26T21:10:11.797Z,99.90
2017-09-26T21:12:38.787Z,99.90
2017-09-26T21:15:04.889Z,99.90
2017-09-26T21:17:30.838Z,99.90
2017-09-26T21:19:56.888Z,99.90
2017-09-26T21:22:27.733Z,99.90
2017-09-26T21:24:54.475Z,99.90
2017-09-26T21:27:20.390Z,99.90
2017-09-26T21:29:50.153Z,99.90
2017-09-26T21:32:26.795Z,99.90
2017-09-26T21:34:54.545Z,99.90
2017-09-26T21:37:24.562Z,99.90
2017-09-26T21:40:00.648Z,99.90
2017-09-26T21:42:26.575Z,99.90
2017-09-26T21:44:53.239Z,99.90
2017-09-26T21:47:26.649Z,99.90
2017-09-26T21:49:52.571Z,99.90
2017-09-26T21:52:20.617Z,99.90
2017-09-26T21:54:50.832Z,99.90
2017-09-26T21:57:17.573Z,99.90
2017-09-26T21:59:44.238Z,99.90
2017-09-26T22:02:15.581Z,99.90
2017-09-26T22:04:42.318Z,99.90
2017-09-26T22:07:13.158Z,99.90
2017-09-26T22:09:43.470Z,99.90
2017-09-26T22:12:10.420Z,99.90
2017-09-26T22:14:37.668Z,99.90
2017-09-26T22:17:03.707Z,99.90
2017-09-26T22:19:29.634Z,99.90
2017-09-26T22:21:55.702Z,99.90
2017-09-26T22:24:32.759Z,99.90
2017-09-26T22:27:10.457Z,99.90
2017-09-26T22:29:41.796Z,99.90
2017-09-26T22:32:08.778Z,99.90
2017-09-26T22:34:36.723Z,99.90
2017-09-26T22:37:06.729Z,99.90
2017-09-26T22:39:34.737Z,99.90
2017-09-26T22:42:08.161Z,99.90
2017-09-26T22:44:34.069Z,99.90
2017-09-26T22:47:03.975Z,99.90
2017-09-26T22:49:30.729Z,99.90
2017-09-26T22:51:56.730Z,99.90
2017-09-26T22:54:22.771Z,99.90
2017-09-26T22:56:55.876Z,99.90
2017-09-26T22:59:28.455Z,99.90
2017-09-26T23:01:59.877Z,99.90
2017-09-26T23:04:25.915Z,99.90
2017-09-26T23:06:53.881Z,99.90
2017-09-26T23:09:20.838Z,99.90
2017-09-26T23:11:52.501Z,99.90
2017-09-26T23:14:25.926Z,99.90
2017-09-26T23:16:51.856Z,99.90
2017-09-26T23:19:17.845Z,99.90
2017-09-26T23:21:43.878Z,99.90
2017-09-26T23:24:15.676Z,99.90
2017-09-26T23:26:41.684Z,99.90
2017-09-26T23:29:08.418Z,99.90
2017-09-26T23:31:35.106Z,99.90
2017-09-26T23:34:05.382Z,99.90
2017-09-26T23:36:35.001Z,99.90
2017-09-26T23:39:02.899Z,99.90
2017-09-26T23:41:29.008Z,99.90
2017-09-26T23:43:55.958Z,99.90
2017-09-26T23:46:22.610Z,99.90
2017-09-26T23:48:48.599Z,99.90
2017-09-26T23:51:14.714Z,99.90
2017-09-26T23:53:41.716Z,99.90
2017-09-26T23:56:09.494Z,99.90
2017-09-26T23:58:41.434Z,99.90
